createdAt,value
2018-06-10T00:01:09.625Z,29.10
2018-06-10T00:03:38.617Z,27.90
2018-06-10T00:06:07.607Z,26.30
2018-06-10T00:08:36.683Z,27.07
2018-06-10T00:11:05.701Z,29.23
2018-06-10T00:13:34.677Z,27.07
2018-06-10T00:16:03.660Z,28.43
2018-06-10T00:18:32.757Z,26.80
2018-06-10T00:21:01.751Z,27.23
2018-06-10T00:23:30.709Z,27.87
2018-06-10T00:25:59.713Z,26.80
2018-06-10T00:28:34.180Z,27.97
2018-06-10T00:31:03.247Z,26.83
2018-06-10T00:33:32.262Z,27.37
2018-06-10T00:36:01.231Z,27.87
2018-06-10T00:38:30.183Z,27.10
2018-06-10T00:40:59.191Z,25.63
2018-06-10T00:43:28.148Z,27.30
2018-06-10T00:45:57.127Z,27.67
2018-06-10T00:48:26.128Z,27.30
2018-06-10T00:50:55.120Z,26.43
2018-06-10T00:53:24.191Z,27.63
2018-06-10T00:55:53.188Z,26.77
2018-06-10T00:58:22.158Z,26.13
2018-06-10T01:00:51.172Z,25.83
2018-06-10T01:03:20.125Z,24.27
2018-06-10T01:05:49.097Z,22.97
2018-06-10T01:08:18.081Z,25.40
2018-06-10T01:10:47.109Z,23.00
2018-06-10T01:13:16.090Z,23.43
2018-06-10T01:15:45.062Z,22.37
2018-06-10T01:18:14.054Z,24.80
2018-06-10T01:20:43.061Z,22.87
2018-06-10T01:23:12.044Z,24.43
2018-06-10T01:25:41.021Z,24.00
2018-06-10T01:28:09.994Z,23.97
2018-06-10T01:30:39.004Z,23.17
2018-06-10T01:33:07.993Z,24.37
2018-06-10T01:35:36.961Z,25.27
2018-06-10T01:38:05.944Z,25.20
2018-06-10T01:40:34.929Z,24.83
2018-06-10T01:43:03.947Z,24.40
2018-06-10T01:45:32.902Z,22.97
2018-06-10T01:48:01.909Z,23.00
2018-06-10T01:50:30.901Z,21.23
2018-06-10T01:52:59.924Z,22.63
2018-06-10T01:55:28.873Z,21.33
2018-06-10T01:57:57.841Z,22.43
2018-06-10T02:00:26.871Z,21.33
2018-06-10T02:02:55.633Z,22.17
2018-06-10T02:05:24.513Z,21.80
2018-06-10T02:07:53.511Z,23.07
2018-06-10T02:10:22.497Z,22.30
2018-06-10T02:12:51.529Z,24.30
2018-06-10T02:15:20.497Z,21.87
2018-06-10T02:17:49.553Z,22.43
2018-06-10T02:20:18.649Z,21.07
2018-06-10T02:22:47.745Z,21.20
2018-06-10T02:25:16.733Z,19.67
2018-06-10T02:27:45.717Z,22.00
2018-06-10T02:30:14.693Z,22.10
2018-06-10T02:32:43.703Z,23.33
2018-06-10T02:35:12.785Z,20.97
2018-06-10T02:37:42.185Z,21.27
2018-06-10T02:40:11.192Z,20.97
2018-06-10T02:42:40.230Z,22.50
2018-06-10T02:45:09.205Z,21.37
2018-06-10T02:47:38.609Z,21.27
2018-06-10T02:50:07.880Z,20.03
2018-06-10T02:52:36.996Z,20.63
2018-06-10T02:55:06.181Z,20.40
2018-06-10T02:57:35.169Z,21.93
2018-06-10T03:00:04.562Z,20.83
2018-06-10T03:02:33.683Z,19.33
2018-06-10T03:05:02.653Z,20.33
2018-06-10T03:07:31.597Z,19.67
2018-06-10T03:10:00.750Z,20.97
2018-06-10T03:12:29.814Z,20.00
2018-06-10T03:14:58.808Z,20.07
2018-06-10T03:17:27.785Z,20.80
2018-06-10T03:19:56.769Z,21.07
2018-06-10T03:22:25.789Z,20.50
2018-06-10T03:24:54.744Z,20.50
2018-06-10T03:27:23.822Z,21.10
2018-06-10T03:29:52.832Z,20.47
2018-06-10T03:32:22.093Z,20.47
2018-06-10T03:34:51.213Z,21.10
2018-06-10T03:37:20.307Z,20.77
2018-06-10T03:39:49.358Z,20.10
2018-06-10T03:42:18.353Z,22.33
2018-06-10T03:44:47.413Z,21.00
2018-06-10T03:47:16.389Z,21.20
2018-06-10T03:49:45.377Z,22.17
2018-06-10T03:52:14.468Z,21.57
2018-06-10T03:54:43.548Z,21.13
2018-06-10T03:57:12.529Z,22.30
2018-06-10T03:59:41.329Z,20.83
2018-06-10T04:02:10.217Z,21.17
2018-06-10T04:04:39.199Z,21.57
2018-06-10T04:07:08.428Z,22.23
2018-06-10T04:09:37.416Z,19.67
2018-06-10T04:12:06.440Z,22.70
2018-06-10T04:14:35.585Z,21.90
2018-06-10T04:17:04.561Z,22.70
2018-06-10T04:19:33.517Z,23.33
2018-06-10T04:22:02.894Z,22.60
2018-06-10T04:24:31.892Z,23.23
2018-06-10T04:27:01.039Z,23.20
2018-06-10T04:29:29.999Z,23.30
2018-06-10T04:31:58.985Z,23.37
2018-06-10T04:34:27.988Z,21.73
2018-06-10T04:36:57.046Z,23.67
2018-06-10T04:39:26.053Z,22.50
2018-06-10T04:41:55.112Z,23.07
2018-06-10T04:44:24.136Z,24.67
2018-06-10T04:46:53.188Z,24.63
2018-06-10T04:49:22.178Z,23.10
2018-06-10T04:51:51.170Z,24.13
2018-06-10T04:54:20.248Z,23.70
2018-06-10T04:56:49.295Z,25.97
2018-06-10T04:59:17.994Z,24.47
2018-06-10T05:01:46.911Z,22.97
2018-06-10T05:04:15.936Z,25.63
2018-06-10T05:06:45.036Z,24.13
2018-06-10T05:09:14.038Z,24.80
2018-06-10T05:11:43.054Z,25.90
2018-06-10T05:14:12.076Z,26.50
2018-06-10T05:16:41.102Z,26.53
2018-06-10T05:19:10.083Z,30.17
2018-06-10T05:21:39.252Z,28.73
2018-06-10T05:24:08.277Z,28.97
2018-06-10T05:26:37.282Z,27.33
2018-06-10T05:29:06.249Z,28.20
2018-06-10T05:31:35.348Z,28.30
2018-06-10T05:34:04.444Z,29.03
2018-06-10T05:36:33.560Z,26.10
2018-06-10T05:39:02.703Z,27.97
2018-06-10T05:41:31.750Z,28.90
2018-06-10T05:44:00.895Z,30.93
2018-06-10T05:46:29.993Z,29.50
2018-06-10T05:48:58.985Z,30.03
2018-06-10T05:51:27.992Z,29.47
2018-06-10T05:53:57.012Z,31.13
2018-06-10T05:56:26.012Z,30.70
2018-06-10T05:58:54.976Z,31.40
2018-06-10T06:01:23.999Z,31.10
2018-06-10T06:03:53.027Z,30.93
2018-06-10T06:06:21.989Z,29.43
2018-06-10T06:08:50.993Z,29.93
2018-06-10T06:11:19.699Z,30.30
2018-06-10T06:13:48.596Z,29.20
2018-06-10T06:16:17.682Z,29.77
2018-06-10T06:18:46.657Z,29.80
2018-06-10T06:21:15.641Z,29.33
2018-06-10T06:23:44.641Z,28.33
2018-06-10T06:26:13.647Z,29.33
2018-06-10T06:28:42.857Z,29.13
2018-06-10T06:31:11.608Z,29.60
2018-06-10T06:33:40.617Z,29.60
2018-06-10T06:36:09.730Z,27.43
2018-06-10T06:38:38.847Z,29.27
2018-06-10T06:41:07.917Z,29.37
2018-06-10T06:43:36.963Z,28.53
2018-06-10T06:46:06.046Z,29.10
2018-06-10T06:48:35.026Z,29.63
2018-06-10T06:51:04.113Z,28.20
2018-06-10T06:53:33.123Z,29.43
2018-06-10T06:56:02.610Z,28.00
2018-06-10T06:58:31.816Z,28.87
2018-06-10T07:01:00.841Z,28.70
2018-06-10T07:03:29.841Z,28.47
2018-06-10T07:05:58.868Z,28.43
2018-06-10T07:08:27.885Z,29.43
2018-06-10T07:10:56.907Z,29.00
2018-06-10T07:13:25.897Z,28.33
2018-06-10T07:15:54.961Z,29.93
2018-06-10T07:18:23.928Z,27.87
2018-06-10T07:20:52.898Z,29.07
2018-06-10T07:23:22.477Z,27.97
2018-06-10T07:25:51.466Z,28.83
2018-06-10T07:28:20.432Z,26.50
2018-06-10T07:30:49.377Z,27.33
2018-06-10T07:33:18.381Z,26.83
2018-06-10T07:35:47.409Z,26.53
2018-06-10T07:38:16.389Z,25.90
2018-06-10T07:40:45.381Z,24.93
2018-06-10T07:43:14.377Z,25.30
2018-06-10T07:45:43.510Z,24.40
2018-06-10T07:48:12.483Z,21.90
2018-06-10T07:50:43.334Z,21.67
2018-06-10T07:53:12.296Z,21.30
2018-06-10T07:55:41.347Z,21.00
2018-06-10T07:58:10.370Z,20.07
2018-06-10T08:00:39.333Z,19.13
2018-06-10T08:03:08.385Z,17.20
2018-06-10T08:05:37.376Z,18.17
2018-06-10T08:08:06.348Z,16.83
2018-06-10T08:10:35.329Z,16.50
2018-06-10T08:13:04.382Z,16.17
2018-06-10T08:15:33.352Z,16.63
2018-06-10T08:18:02.306Z,15.43
2018-06-10T08:20:31.278Z,15.90
2018-06-10T08:23:00.278Z,15.37
2018-06-10T08:25:29.287Z,15.57
2018-06-10T08:27:58.274Z,14.03
2018-06-10T08:30:27.246Z,14.60
2018-06-10T08:32:56.322Z,13.87
2018-06-10T08:35:25.933Z,14.50
2018-06-10T08:37:54.922Z,14.00
2018-06-10T08:40:23.972Z,14.33
2018-06-10T08:42:52.967Z,13.97
2018-06-10T08:45:21.986Z,14.37
2018-06-10T08:47:50.979Z,14.87
2018-06-10T08:50:19.670Z,14.57
2018-06-10T08:52:48.564Z,14.23
2018-06-10T08:55:17.774Z,15.10
2018-06-10T08:57:46.741Z,14.47
2018-06-10T09:00:15.724Z,15.20
2018-06-10T09:02:44.808Z,13.60
2018-06-10T09:05:13.848Z,14.57
2018-06-10T09:07:42.878Z,14.17
2018-06-10T09:10:11.852Z,14.10
2018-06-10T09:12:40.849Z,13.80
2018-06-10T09:15:09.888Z,14.97
2018-06-10T09:17:38.914Z,13.17
2018-06-10T09:20:07.959Z,13.73
2018-06-10T09:22:36.949Z,14.33
2018-06-10T09:25:06.202Z,14.23
2018-06-10T09:27:35.203Z,13.40
2018-06-10T09:30:04.259Z,13.93
2018-06-10T09:32:33.334Z,14.33
2018-06-10T09:35:02.296Z,13.53
2018-06-10T09:37:31.304Z,13.60
2018-06-10T09:40:00.281Z,14.20
2018-06-10T09:42:29.360Z,14.07
2018-06-10T09:44:58.326Z,13.77
2018-06-10T09:47:27.377Z,13.70
2018-06-10T09:49:56.394Z,12.97
2018-06-10T09:52:25.385Z,12.67
2018-06-10T09:54:54.369Z,12.67
2018-06-10T09:57:23.392Z,13.10
2018-06-10T09:59:52.338Z,12.80
2018-06-10T10:02:21.493Z,13.50
2018-06-10T10:04:50.552Z,13.17
2018-06-10T10:07:19.551Z,12.73
2018-06-10T10:09:48.527Z,13.00
2018-06-10T10:12:17.501Z,13.23
2018-06-10T10:14:46.577Z,11.83
2018-06-10T10:17:15.572Z,12.83
2018-06-10T10:19:44.538Z,12.40
2018-06-10T10:22:13.552Z,11.70
2018-06-10T10:24:42.521Z,11.50
2018-06-10T10:27:11.522Z,13.20
2018-06-10T10:29:40.538Z,12.93
2018-06-10T10:32:09.562Z,12.40
2018-06-10T10:34:38.627Z,12.93
2018-06-10T10:37:07.602Z,11.90
2018-06-10T10:39:36.595Z,12.23
2018-06-10T10:42:06.113Z,11.43
2018-06-10T10:44:35.193Z,11.80
2018-06-10T10:47:05.009Z,12.50
2018-06-10T10:49:34.032Z,13.03
2018-06-10T10:52:02.997Z,11.80
2018-06-10T10:54:32.026Z,11.37
2018-06-10T10:57:01.064Z,11.40
2018-06-10T10:59:30.063Z,11.30
2018-06-10T11:01:59.063Z,11.13
2018-06-10T11:04:28.051Z,11.47
2018-06-10T11:06:57.161Z,11.77
2018-06-10T11:09:26.282Z,12.37
2018-06-10T11:11:55.234Z,11.83
2018-06-10T11:14:23.936Z,11.93
2018-06-10T11:16:52.852Z,11.90
2018-06-10T11:19:21.944Z,11.40
2018-06-10T11:21:50.986Z,11.90
2018-06-10T11:24:19.965Z,12.00
2018-06-10T11:27:02.235Z,12.07
2018-06-10T11:29:32.510Z,12.17
2018-06-10T11:32:01.531Z,12.00
2018-06-10T11:34:30.579Z,11.03
2018-06-10T11:36:59.721Z,10.83
2018-06-10T11:39:28.834Z,11.10
2018-06-10T11:41:57.891Z,11.57
2018-06-10T11:44:26.891Z,11.90
2018-06-10T11:46:55.890Z,10.77
2018-06-10T11:49:24.933Z,11.60
2018-06-10T11:51:53.973Z,11.03
2018-06-10T11:54:23.879Z,9.77
2018-06-10T11:56:52.879Z,10.97
2018-06-10T11:59:21.909Z,11.10
2018-06-10T12:01:50.947Z,11.27
2018-06-10T12:04:19.956Z,10.43
2018-06-10T12:06:48.933Z,10.20
2018-06-10T12:09:17.937Z,11.27
2018-06-10T12:11:46.936Z,10.73
2018-06-10T12:14:15.977Z,10.30
2018-06-10T12:16:45.074Z,10.33
2018-06-10T12:19:14.128Z,9.90
2018-06-10T12:21:43.122Z,10.83
2018-06-10T12:24:12.149Z,11.07
2018-06-10T12:26:41.247Z,10.07
2018-06-10T12:29:10.381Z,9.70
2018-06-10T12:31:39.347Z,9.23
2018-06-10T12:34:08.325Z,9.80
2018-06-10T12:36:37.291Z,9.90
2018-06-10T12:39:08.257Z,9.97
2018-06-10T12:41:37.640Z,9.97
2018-06-10T12:44:06.354Z,9.67
2018-06-10T12:46:35.246Z,9.17
2018-06-10T12:49:04.321Z,8.37
2018-06-10T12:51:33.327Z,9.93
2018-06-10T12:54:02.289Z,10.13
2018-06-10T12:56:31.274Z,9.90
2018-06-10T12:59:00.396Z,10.27
2018-06-10T13:01:29.428Z,10.67
2018-06-10T13:03:58.456Z,10.13
2018-06-10T13:06:27.446Z,10.30
2018-06-10T13:08:56.485Z,9.77
2018-06-10T13:11:25.462Z,9.53
2018-06-10T13:13:54.549Z,10.33
2018-06-10T13:16:23.619Z,9.53
2018-06-10T13:18:52.349Z,9.30
2018-06-10T13:21:21.218Z,9.77
2018-06-10T13:23:49.932Z,10.43
2018-06-10T13:26:18.888Z,9.33
2018-06-10T13:28:47.891Z,9.30
2018-06-10T13:31:16.914Z,9.90
2018-06-10T13:33:45.885Z,9.43
2018-06-10T13:36:15.002Z,9.10
2018-06-10T13:38:44.046Z,9.50
2018-06-10T13:41:13.037Z,8.70
2018-06-10T13:43:42.066Z,9.13
2018-06-10T13:46:11.136Z,10.90
2018-06-10T13:48:40.082Z,9.90
2018-06-10T13:51:09.141Z,10.30
2018-06-10T13:53:38.210Z,10.20
2018-06-10T13:56:07.345Z,10.73
2018-06-10T13:58:36.350Z,11.10
2018-06-10T14:01:05.369Z,10.30
2018-06-10T14:03:34.379Z,10.07
2018-06-10T14:06:03.377Z,10.00
2018-06-10T14:08:32.395Z,11.17
2018-06-10T14:11:01.405Z,10.50
2018-06-10T14:13:30.386Z,10.57
2018-06-10T14:15:59.107Z,10.73
2018-06-10T14:18:28.036Z,10.40
2018-06-10T14:20:57.122Z,10.07
2018-06-10T14:23:26.066Z,10.30
2018-06-10T14:25:55.025Z,9.47
2018-06-10T14:28:24.007Z,9.60
2018-06-10T14:30:53.060Z,10.80
2018-06-10T14:33:22.068Z,9.80
2018-06-10T14:35:51.017Z,9.67
2018-06-10T14:38:20.031Z,9.20
2018-06-10T14:40:49.103Z,10.03
2018-06-10T14:43:18.980Z,10.57
2018-06-10T14:45:47.956Z,9.97
2018-06-10T14:48:17.006Z,9.77
2018-06-10T14:50:46.017Z,10.40
2018-06-10T14:53:15.129Z,10.47
2018-06-10T14:55:44.113Z,9.90
2018-06-10T14:58:13.136Z,9.67
2018-06-10T15:00:42.309Z,10.07
2018-06-10T15:03:11.278Z,9.53
2018-06-10T15:05:40.255Z,10.30
2018-06-10T15:08:09.261Z,9.73
2018-06-10T15:10:37.993Z,10.17
2018-06-10T15:13:06.905Z,9.37
2018-06-10T15:15:36.006Z,9.77
2018-06-10T15:18:05.129Z,9.80
2018-06-10T15:20:34.200Z,9.87
2018-06-10T15:23:03.185Z,9.83
2018-06-10T15:25:32.217Z,9.70
2018-06-10T15:28:01.197Z,9.87
2018-06-10T15:30:30.316Z,9.83
2018-06-10T15:32:59.427Z,9.43
2018-06-10T15:35:28.409Z,8.83
2018-06-10T15:37:57.411Z,9.83
2018-06-10T15:40:26.425Z,8.73
2018-06-10T15:42:55.507Z,9.23
2018-06-10T15:45:24.468Z,8.67
2018-06-10T15:47:53.548Z,8.83
2018-06-10T15:50:22.581Z,9.00
2018-06-10T15:52:51.580Z,9.17
2018-06-10T15:55:20.549Z,9.57
2018-06-10T15:57:49.564Z,8.53
2018-06-10T16:00:18.632Z,9.67
2018-06-10T16:02:47.653Z,10.40
2018-06-10T16:05:16.707Z,9.57
2018-06-10T16:07:45.744Z,9.67
2018-06-10T16:10:14.710Z,9.23
2018-06-10T16:12:43.704Z,9.10
2018-06-10T16:15:12.686Z,9.20
2018-06-10T16:17:41.635Z,9.43
2018-06-10T16:20:10.604Z,9.13
2018-06-10T16:22:39.618Z,9.97
2018-06-10T16:25:08.661Z,10.03
2018-06-10T16:27:37.632Z,9.93
2018-06-10T16:30:06.698Z,9.10
2018-06-10T16:32:35.818Z,9.83
2018-06-10T16:35:04.831Z,9.93
2018-06-10T16:37:33.832Z,10.00
2018-06-10T16:40:02.844Z,9.37
2018-06-10T16:42:31.857Z,9.07
2018-06-10T16:45:00.880Z,9.40
2018-06-10T16:47:29.866Z,9.30
2018-06-10T16:49:58.869Z,8.87
2018-06-10T16:52:27.893Z,8.73
2018-06-10T16:54:56.878Z,8.67
2018-06-10T16:57:26.018Z,8.50
2018-06-10T16:59:55.010Z,9.50
2018-06-10T17:02:23.969Z,8.53
2018-06-10T17:04:52.956Z,8.63
2018-06-10T17:07:21.991Z,8.83
2018-06-10T17:09:50.973Z,8.77
2018-06-10T17:12:19.997Z,8.03
2018-06-10T17:14:48.969Z,9.33
2018-06-10T17:17:17.947Z,8.33
2018-06-10T17:19:46.908Z,8.20
2018-06-10T17:22:16.074Z,8.10
2018-06-10T17:24:45.081Z,7.73
2018-06-10T17:27:14.045Z,8.13
2018-06-10T17:29:43.665Z,8.30
2018-06-10T17:32:12.761Z,7.80
2018-06-10T17:34:42.497Z,8.27
2018-06-10T17:37:11.615Z,8.30
2018-06-10T17:39:40.360Z,8.67
2018-06-10T17:42:09.674Z,8.83
2018-06-10T17:44:38.636Z,8.60
2018-06-10T17:47:07.649Z,8.47
2018-06-10T17:49:36.662Z,8.13
2018-06-10T17:52:05.812Z,9.10
2018-06-10T17:54:34.760Z,9.37
2018-06-10T17:57:03.777Z,8.77
2018-06-10T17:59:32.756Z,8.63
2018-06-10T18:02:01.751Z,8.63
2018-06-10T18:04:30.784Z,8.60
2018-06-10T18:06:59.784Z,8.50
2018-06-10T18:09:29.698Z,8.10
2018-06-10T18:11:59.223Z,9.37
2018-06-10T18:14:28.234Z,8.80
2018-06-10T18:16:57.258Z,9.60
2018-06-10T18:19:26.224Z,10.27
2018-06-10T18:21:55.222Z,8.73
2018-06-10T18:24:24.264Z,8.77
2018-06-10T18:26:53.268Z,8.87
2018-06-10T18:29:22.446Z,8.70
2018-06-10T18:31:51.467Z,8.90
2018-06-10T18:34:20.522Z,8.37
2018-06-10T18:36:49.494Z,8.03
2018-06-10T18:39:18.455Z,8.30
2018-06-10T18:41:47.478Z,8.13
2018-06-10T18:44:16.530Z,7.80
2018-06-10T18:46:45.532Z,7.27
2018-06-10T18:49:14.512Z,7.50
2018-06-10T18:51:43.642Z,8.00
2018-06-10T18:54:12.658Z,7.17
2018-06-10T18:56:41.681Z,7.23
2018-06-10T18:59:10.649Z,7.70
2018-06-10T19:01:39.601Z,7.30
2018-06-10T19:04:08.826Z,7.00
2018-06-10T19:06:37.822Z,7.27
2018-06-10T19:09:08.678Z,7.20
2018-06-10T19:11:37.658Z,7.47
2018-06-10T19:14:06.653Z,6.47
2018-06-10T19:16:35.705Z,7.43
2018-06-10T19:19:05.698Z,7.30
2018-06-10T19:21:34.717Z,7.20
2018-06-10T19:24:03.738Z,7.17
2018-06-10T19:26:32.722Z,7.10
2018-06-10T19:29:01.877Z,6.47
2018-06-10T19:31:30.900Z,6.67
2018-06-10T19:33:59.962Z,6.67
2018-06-10T19:36:28.990Z,6.70
2018-06-10T19:38:58.146Z,6.60
2018-06-10T19:41:27.123Z,7.13
2018-06-10T19:43:56.168Z,7.00
2018-06-10T19:46:25.170Z,7.20
2018-06-10T19:48:54.241Z,6.83
2018-06-10T19:51:23.228Z,6.80
2018-06-10T19:53:52.248Z,7.30
2018-06-10T19:56:21.388Z,6.63
2018-06-10T19:58:50.360Z,7.10
2018-06-10T20:01:19.380Z,6.97
2018-06-10T20:03:48.653Z,7.20
2018-06-10T20:06:17.626Z,7.47
2018-06-10T20:08:46.642Z,7.30
2018-06-10T20:11:15.683Z,7.03
2018-06-10T20:13:44.786Z,7.23
2018-06-10T20:16:13.876Z,7.00
2018-06-10T20:18:42.975Z,7.03
2018-06-10T20:21:11.995Z,7.53
2018-06-10T20:23:41.045Z,7.37
2018-06-10T20:26:09.748Z,6.73
2018-06-10T20:28:38.681Z,7.43
2018-06-10T20:31:07.676Z,7.60
2018-06-10T20:33:36.689Z,7.80
2018-06-10T20:36:05.689Z,7.43
2018-06-10T20:38:34.683Z,8.20
2018-06-10T20:41:03.669Z,7.60
2018-06-10T20:43:32.756Z,7.60
2018-06-10T20:46:04.801Z,8.03
2018-06-10T20:48:33.933Z,8.40
2018-06-10T20:51:02.869Z,8.20
2018-06-10T20:53:31.870Z,7.70
2018-06-10T20:56:00.925Z,8.00
2018-06-10T20:58:29.917Z,8.20
2018-06-10T21:00:58.929Z,7.83
2018-06-10T21:03:27.931Z,8.90
2018-06-10T21:05:56.912Z,8.57
2018-06-10T21:08:25.898Z,8.10
2018-06-10T21:10:54.884Z,9.10
2018-06-10T21:13:24.161Z,8.30
2018-06-10T21:15:53.811Z,8.30
2018-06-10T21:18:22.767Z,8.00
2018-06-10T21:20:51.741Z,9.30
2018-06-10T21:23:20.779Z,9.60
2018-06-10T21:25:49.826Z,9.43
2018-06-10T21:28:18.813Z,9.43
2018-06-10T21:30:47.790Z,9.43
2018-06-10T21:33:16.833Z,9.30
2018-06-10T21:35:45.540Z,9.20
2018-06-10T21:38:14.511Z,9.53
2018-06-10T21:40:44.719Z,9.27
2018-06-10T21:43:13.690Z,9.77
2018-06-10T21:45:42.719Z,9.57
2018-06-10T21:48:11.667Z,9.20
2018-06-10T21:50:40.643Z,9.43
2018-06-10T21:53:09.657Z,9.13
2018-06-10T21:55:38.697Z,9.80
2018-06-10T21:58:07.681Z,9.30
2018-06-10T22:00:36.697Z,8.63
2018-06-10T22:03:05.814Z,8.53
2018-06-10T22:05:34.866Z,8.50
2018-06-10T22:08:03.868Z,8.23
2018-06-10T22:10:32.832Z,9.10
2018-06-10T22:13:01.850Z,8.20
2018-06-10T22:15:30.862Z,8.90
2018-06-10T22:17:59.862Z,8.63
2018-06-10T22:20:28.966Z,8.30
2018-06-10T22:22:57.981Z,9.07
2018-06-10T22:25:27.077Z,9.10
2018-06-10T22:27:56.078Z,8.60
2018-06-10T22:30:25.034Z,9.17
2018-06-10T22:32:54.029Z,9.10
2018-06-10T22:35:23.073Z,8.67
2018-06-10T22:37:52.057Z,8.90
2018-06-10T22:40:21.054Z,8.97
2018-06-10T22:42:50.071Z,9.67
2018-06-10T22:45:19.090Z,9.27
2018-06-10T22:47:48.054Z,8.93
2018-06-10T22:50:17.058Z,9.40
2018-06-10T22:52:45.876Z,9.13
2018-06-10T22:55:14.834Z,9.33
2018-06-10T22:57:43.856Z,9.77
2018-06-10T23:00:12.844Z,10.00
2018-06-10T23:02:41.854Z,10.00
2018-06-10T23:05:10.940Z,10.77
2018-06-10T23:07:39.917Z,10.37
2018-06-10T23:10:08.934Z,10.60
2018-06-10T23:12:37.924Z,11.13
2018-06-10T23:15:06.981Z,11.83
2018-06-10T23:17:35.992Z,10.93
2018-06-10T23:20:04.973Z,11.03
2018-06-10T23:22:33.989Z,11.27
2018-06-10T23:25:03.095Z,11.83
2018-06-10T23:27:32.109Z,11.50
2018-06-10T23:30:01.079Z,11.63
2018-06-10T23:32:30.077Z,12.13
2018-06-10T23:34:59.068Z,11.17
2018-06-10T23:37:28.108Z,12.07
2018-06-10T23:39:57.319Z,12.20
2018-06-10T23:42:26.280Z,11.97
2018-06-10T23:44:55.278Z,12.47
2018-06-10T23:47:24.293Z,11.73
2018-06-10T23:49:53.287Z,11.87
2018-06-10T23:52:22.260Z,12.43
2018-06-10T23:54:51.299Z,13.57
2018-06-10T23:57:20.416Z,12.57
2018-06-10T23:59:49.409Z,12.47
